Time;durP1;ratioP1;P1;durP2;ratioP2;P2;SDS_P1;SDS_P2;PMS_P1;PMS_P2;Temp;Humidity;BMP_temperature;BMP_pressure;BME280_temperature;BME280_humidity;BME280_pressure;Samples;Min_cycle;Max_cycle;Signal;HPM_P1;HPM_P2
2022/03/01 00:00:27;;;;;;;70.35;20.15;;;6.00;91.10;;;;;;4808430;29;20062;-73
2022/03/01 00:02:54;;;;;;;71.10;19.67;;;6.00;91.20;;;;;;4808209;29;20058;-73
2022/03/01 00:05:22;;;;;;;62.33;19.15;;;6.00;91.20;;;;;;4808475;29;20047;-73
2022/03/01 00:07:50;;;;;;;79.95;20.70;;;6.00;91.20;;;;;;4806874;29;20074;-73
2022/03/01 00:10:17;;;;;;;66.97;20.20;;;5.90;91.20;;;;;;4805872;29;20059;-73
2022/03/01 00:12:45;;;;;;;72.88;20.02;;;5.90;91.30;;;;;;4792092;29;20054;-73
2022/03/01 00:15:13;;;;;;;61.85;19.63;;;6.00;91.30;;;;;;4807222;29;20065;-74
2022/03/01 00:17:42;;;;;;;82.05;20.55;;;6.00;91.30;;;;;;4807569;29;20054;-74
2022/03/01 00:20:10;;;;;;;72.90;19.98;;;6.00;91.30;;;;;;4808092;29;20063;-74
2022/03/01 00:22:38;;;;;;;71.70;19.13;;;6.10;91.30;;;;;;4807601;29;20055;-73
2022/03/01 00:25:06;;;;;;;73.32;17.95;;;6.10;91.30;;;;;;4808997;29;20055;-74
2022/03/01 00:27:34;;;;;;;53.15;15.38;;;6.10;91.20;;;;;;4808922;29;20062;-74
2022/03/01 00:30:02;;;;;;;62.33;15.82;;;6.10;91.20;;;;;;4806818;29;20497;-74
2022/03/01 00:32:30;;;;;;;64.70;14.52;;;6.10;91.20;;;;;;4807930;29;20528;-74
2022/03/01 00:34:58;;;;;;;52.72;10.60;;;6.10;91.20;;;;;;4807951;29;20051;-74
2022/03/01 00:37:25;;;;;;;37.92;10.85;;;6.20;91.20;;;;;;4802240;29;20047;-74
2022/03/01 00:39:53;;;;;;;43.05;12.18;;;6.20;91.20;;;;;;4798658;29;20055;-74
2022/03/01 00:42:20;;;;;;;31.80;8.40;;;6.20;91.10;;;;;;4807508;29;20083;-74
2022/03/01 00:44:48;;;;;;;39.58;8.65;;;6.20;91.10;;;;;;4807623;29;20405;-74
2022/03/01 00:47:16;;;;;;;36.30;7.32;;;6.30;91.10;;;;;;4806845;29;20062;-74
2022/03/01 00:49:43;;;;;;;39.92;9.05;;;6.30;91.10;;;;;;4804018;29;20059;-74
2022/03/01 00:52:11;;;;;;;30.35;8.25;;;6.30;91.00;;;;;;4806033;29;20061;-74
2022/03/01 00:54:38;;;;;;;40.10;8.10;;;6.40;90.90;;;;;;4805474;29;20414;-74
2022/03/01 00:57:09;;;;;;;40.38;8.82;;;6.40;90.90;;;;;;4806896;29;20047;-74
2022/03/01 00:59:36;;;;;;;37.50;6.88;;;6.40;90.80;;;;;;4805148;29;20425;-74
2022/03/01 01:02:04;;;;;;;37.88;6.70;;;6.40;90.80;;;;;;4805621;29;20058;-74
2022/03/01 01:04:32;;;;;;;24.25;5.35;;;6.40;90.70;;;;;;4802353;29;20059;-74
2022/03/01 01:06:59;;;;;;;30.35;5.28;;;6.40;90.50;;;;;;4806177;29;20051;-74
2022/03/01 01:09:27;;;;;;;27.52;5.20;;;6.30;90.50;;;;;;4806725;29;20062;-74
2022/03/01 01:11:58;;;;;;;36.45;5.70;;;6.30;90.50;;;;;;4804958;29;20051;-74
2022/03/01 01:14:26;;;;;;;30.40;5.47;;;6.20;90.50;;;;;;4803920;29;20062;-74
2022/03/01 01:16:53;;;;;;;29.58;5.35;;;6.10;90.40;;;;;;4806397;29;20402;-74
2022/03/01 01:19:21;;;;;;;33.88;6.18;;;6.00;90.40;;;;;;4804362;29;20042;-74
2022/03/01 01:24:35;;;;;;;30.60;6.25;;;5.90;90.80;;;;;;4805461;29;20054;-74
2022/03/01 01:27:03;;;;;;;40.45;6.82;;;6.00;90.90;;;;;;4805866;29;20058;-73
2022/03/01 01:29:31;;;;;;;40.60;7.07;;;5.90;90.90;;;;;;4806704;29;20051;-74
2022/03/01 01:31:58;;;;;;;33.17;7.93;;;5.90;90.80;;;;;;4805323;29;20046;-73
2022/03/01 01:34:26;;;;;;;32.70;6.82;;;5.90;90.70;;;;;;4805628;29;20055;-73
2022/03/01 01:36:53;;;;;;;44.42;8.30;;;5.80;90.70;;;;;;4805480;29;20054;-73
2022/03/01 01:39:21;;;;;;;41.72;9.13;;;5.80;90.80;;;;;;4804434;29;20055;-74
2022/03/01 01:41:49;;;;;;;29.48;7.18;;;5.80;90.80;;;;;;4806050;29;20054;-73
2022/03/01 01:44:18;;;;;;;33.78;7.47;;;5.80;90.80;;;;;;4806026;29;20149;-73
2022/03/01 01:46:47;;;;;;;32.67;8.52;;;5.80;90.70;;;;;;4806284;29;20051;-74
2022/03/01 01:49:15;;;;;;;44.25;9.25;;;5.80;90.70;;;;;;4805688;29;20055;-73
2022/03/01 01:51:42;;;;;;;38.03;8.85;;;5.80;90.70;;;;;;4805748;29;20512;-73
2022/03/01 01:54:10;;;;;;;38.88;9.18;;;5.70;90.70;;;;;;4805070;29;20047;-73
2022/03/01 01:56:38;;;;;;;32.88;9.43;;;5.70;90.80;;;;;;4806071;29;20058;-74
2022/03/01 01:59:06;;;;;;;34.35;9.88;;;5.70;90.70;;;;;;4804372;29;20050;-73
2022/03/01 02:01:34;;;;;;;52.13;11.60;;;5.70;90.70;;;;;;4804772;29;20081;-73
2022/03/01 02:04:02;;;;;;;42.28;10.60;;;5.70;90.80;;;;;;4803133;29;20066;-73
2022/03/01 02:06:30;;;;;;;38.85;9.52;;;5.70;90.80;;;;;;4818005;29;20047;-74
2022/03/01 02:08:58;;;;;;;34.63;10.52;;;5.70;90.80;;;;;;4804464;29;20055;-73
2022/03/01 02:11:26;;;;;;;41.65;10.50;;;5.70;90.80;;;;;;4805931;29;20061;-73
2022/03/01 02:13:53;;;;;;;40.00;10.88;;;5.60;90.70;;;;;;4805207;29;20064;-74
2022/03/01 02:16:21;;;;;;;42.10;11.30;;;5.60;90.70;;;;;;4805068;29;20042;-74
2022/03/01 02:18:49;;;;;;;45.47;11.18;;;5.50;90.70;;;;;;4818531;29;20047;-74
2022/03/01 02:21:17;;;;;;;44.05;10.93;;;5.40;90.70;;;;;;4805302;29;20054;-73
2022/03/01 02:23:44;;;;;;;45.70;11.45;;;5.30;90.70;;;;;;4806025;29;20051;-73
2022/03/01 02:26:12;;;;;;;48.10;11.15;;;5.30;90.80;;;;;;4805359;29;20059;-73
2022/03/01 02:28:40;;;;;;;43.45;11.52;;;5.20;90.80;;;;;;4799874;29;20516;-73
2022/03/01 02:31:07;;;;;;;39.05;11.43;;;5.10;90.90;;;;;;4803069;29;20046;-73
2022/03/01 02:33:37;;;;;;;47.30;12.65;;;5.10;91.00;;;;;;4804596;29;20054;-73
2022/03/01 02:36:05;;;;;;;39.22;11.48;;;5.00;91.00;;;;;;4804883;29;20047;-73
2022/03/01 02:38:33;;;;;;;45.55;12.20;;;5.00;91.00;;;;;;4804230;29;20055;-74
2022/03/01 02:41:01;;;;;;;57.35;13.23;;;4.90;91.00;;;;;;4804922;29;20054;-73
2022/03/01 02:43:28;;;;;;;53.95;13.57;;;4.90;91.30;;;;;;4804296;29;20512;-73
2022/03/01 02:45:56;;;;;;;56.58;14.55;;;4.80;91.40;;;;;;4800786;29;20490;-73
2022/03/01 02:48:24;;;;;;;61.97;14.45;;;4.90;91.40;;;;;;4804058;29;20081;-72
2022/03/01 02:50:51;;;;;;;58.00;14.73;;;4.90;91.30;;;;;;4801690;29;20050;-73
2022/03/01 02:53:19;;;;;;;62.00;15.45;;;4.80;91.30;;;;;;4818148;29;20047;-73
2022/03/01 02:55:46;;;;;;;52.03;14.93;;;4.80;91.20;;;;;;4804580;29;20043;-73
2022/03/01 02:58:15;;;;;;;66.47;15.90;;;4.80;91.30;;;;;;4802249;29;20510;-73
2022/03/01 03:00:48;;;;;;;71.22;16.23;;;4.80;91.40;;;;;;4804265;29;20080;-74
2022/03/01 03:03:15;;;;;;;67.10;17.20;;;4.70;91.30;;;;;;4804539;29;20058;-73
2022/03/01 03:05:43;;;;;;;73.72;17.08;;;4.70;91.40;;;;;;4804574;29;20055;-73
2022/03/01 03:08:11;;;;;;;74.65;18.10;;;4.60;91.30;;;;;;4802749;29;20042;-73
2022/03/01 03:10:38;;;;;;;80.50;18.23;;;4.60;91.40;;;;;;4804298;29;20074;-73
2022/03/01 03:13:06;;;;;;;75.55;19.40;;;4.60;91.50;;;;;;4803616;29;20058;-73
2022/03/01 03:15:34;;;;;;;85.75;19.65;;;4.60;91.50;;;;;;4803025;29;20042;-73
2022/03/01 03:18:03;;;;;;;88.22;20.33;;;4.60;91.60;;;;;;4803995;29;20046;-73
2022/03/01 03:20:31;;;;;;;85.22;20.15;;;4.60;91.90;;;;;;4802749;29;20051;-73
2022/03/01 03:22:58;;;;;;;82.72;21.70;;;4.70;92.10;;;;;;4804115;29;20437;-73
2022/03/01 03:25:26;;;;;;;94.00;22.23;;;4.80;92.00;;;;;;4804082;29;20047;-73
2022/03/01 03:27:54;;;;;;;89.28;21.02;;;4.80;92.00;;;;;;4802741;29;20058;-74
2022/03/01 03:30:21;;;;;;;89.82;22.27;;;5.00;91.90;;;;;;4804427;29;20050;-73
2022/03/01 03:32:49;;;;;;;89.43;22.00;;;5.00;91.80;;;;;;4803154;29;20067;-73
2022/03/01 03:35:17;;;;;;;104.70;23.17;;;5.10;91.70;;;;;;4803857;29;20046;-73
2022/03/01 03:37:45;;;;;;;104.68;22.75;;;5.10;91.70;;;;;;4802736;29;20066;-73
2022/03/01 03:40:14;;;;;;;94.53;22.13;;;5.10;91.70;;;;;;4803243;29;20054;-74
2022/03/01 03:42:45;;;;;;;110.97;24.00;;;5.10;91.60;;;;;;4804324;29;20055;-73
2022/03/01 03:45:13;;;;;;;90.55;21.85;;;5.10;91.60;;;;;;4803816;29;20058;-74
2022/03/01 03:47:41;;;;;;;79.53;21.05;;;5.10;91.50;;;;;;4803921;29;20051;-73
2022/03/01 03:50:09;;;;;;;64.57;18.60;;;5.00;91.50;;;;;;4803800;29;20051;-73
2022/03/01 03:52:39;;;;;;;84.53;21.92;;;5.00;91.60;;;;;;4803941;29;20402;-73
2022/03/01 03:55:08;;;;;;;82.20;20.08;;;5.00;91.60;;;;;;4817607;29;20047;-73
2022/03/01 03:57:37;;;;;;;82.65;20.95;;;5.00;91.60;;;;;;4803455;29;20070;-73
2022/03/01 04:00:08;;;;;;;82.68;21.50;;;4.90;91.50;;;;;;4802419;29;20074;-73
2022/03/01 04:02:35;;;;;;;69.07;18.10;;;4.90;91.50;;;;;;4803850;29;20062;-73
2022/03/01 04:05:03;;;;;;;80.03;20.40;;;4.80;91.50;;;;;;4804198;29;20520;-73
2022/03/01 04:07:31;;;;;;;82.50;20.15;;;4.80;91.60;;;;;;4804428;29;20054;-73
2022/03/01 04:09:59;;;;;;;73.80;19.17;;;4.70;91.60;;;;;;4803405;29;20047;-73
2022/03/01 04:12:27;;;;;;;77.60;18.58;;;4.70;91.70;;;;;;4802738;29;20068;-73
2022/03/01 04:14:55;;;;;;;77.35;18.40;;;4.60;91.80;;;;;;4803373;29;20059;-74
2022/03/01 04:17:23;;;;;;;67.75;19.25;;;4.50;91.80;;;;;;4803931;29;20449;-73
2022/03/01 04:19:51;;;;;;;75.50;19.60;;;4.50;91.80;;;;;;4803636;29;20054;-73
2022/03/01 04:22:19;;;;;;;80.22;20.42;;;4.50;91.80;;;;;;4802220;29;20538;-73
2022/03/01 04:24:47;;;;;;;80.07;20.40;;;4.40;91.80;;;;;;4803859;29;20074;-73
2022/03/01 04:27:17;;;;;;;81.13;20.58;;;4.30;91.90;;;;;;4806871;29;20054;-73
2022/03/01 04:29:45;;;;;;;77.35;19.67;;;4.30;91.90;;;;;;4806362;29;20059;-73
2022/03/01 04:32:13;;;;;;;87.82;19.90;;;4.30;92.00;;;;;;4806757;29;20043;-73
2022/03/01 04:34:41;;;;;;;80.15;19.98;;;4.30;92.00;;;;;;4806800;29;20047;-73
2022/03/01 04:37:10;;;;;;;89.40;20.45;;;4.20;91.80;;;;;;4806621;29;20042;-73
2022/03/01 04:39:37;;;;;;;82.38;20.10;;;4.20;91.80;;;;;;4805933;29;20528;-73
2022/03/01 04:42:08;;;;;;;87.65;20.55;;;4.10;91.80;;;;;;4806707;29;20054;-73
2022/03/01 04:44:36;;;;;;;79.15;20.85;;;4.00;91.80;;;;;;4806355;29;20055;-73
2022/03/01 04:47:04;;;;;;;97.53;22.02;;;4.00;91.80;;;;;;4806454;29;20494;-73
2022/03/01 04:49:32;;;;;;;92.93;22.33;;;3.90;91.80;;;;;;4806334;29;20398;-73
2022/03/01 04:52:00;;;;;;;96.00;23.42;;;3.80;91.60;;;;;;4806136;29;20464;-73
2022/03/01 04:54:28;;;;;;;102.88;22.45;;;3.80;91.50;;;;;;4805097;29;20383;-73
2022/03/01 04:56:56;;;;;;;125.47;24.52;;;3.70;91.30;;;;;;4804614;29;20054;-73
2022/03/01 04:59:23;;;;;;;128.15;25.15;;;3.50;91.30;;;;;;4805809;29;20533;-73
2022/03/01 05:01:51;;;;;;;124.82;25.08;;;3.50;91.30;;;;;;4804832;29;20062;-73
2022/03/01 05:04:19;;;;;;;135.65;26.35;;;3.40;91.50;;;;;;4804678;29;20501;-73
2022/03/01 05:06:47;;;;;;;138.30;26.30;;;3.40;91.90;;;;;;4806133;29;20046;-73
2022/03/01 05:09:15;;;;;;;131.50;27.95;;;3.40;92.00;;;;;;4805046;29;20054;-73
2022/03/01 05:11:43;;;;;;;135.60;26.33;;;3.30;91.90;;;;;;4806130;29;20058;-73
2022/03/01 05:14:11;;;;;;;152.80;27.38;;;3.30;92.10;;;;;;4806058;29;20054;-73
2022/03/01 05:16:39;;;;;;;169.85;26.33;;;3.30;92.10;;;;;;4805511;29;20055;-73
2022/03/01 05:19:08;;;;;;;181.98;27.02;;;3.30;92.20;;;;;;4804934;29;20043;-73
2022/03/01 05:21:36;;;;;;;213.80;27.77;;;3.30;92.20;;;;;;4806112;29;20055;-74
2022/03/01 05:24:05;;;;;;;183.68;26.27;;;3.30;92.20;;;;;;4819276;29;20505;-73
2022/03/01 05:26:33;;;;;;;175.48;26.35;;;3.30;92.30;;;;;;4802130;29;20054;-73
2022/03/01 05:29:01;;;;;;;141.25;26.50;;;3.30;92.40;;;;;;4802216;29;20051;-73
2022/03/01 05:31:29;;;;;;;151.38;26.63;;;3.30;92.40;;;;;;4805773;29;20050;-73
2022/03/01 05:33:57;;;;;;;125.10;22.85;;;3.20;92.30;;;;;;4805621;29;20057;-73
2022/03/01 05:36:24;;;;;;;111.82;22.73;;;3.10;92.20;;;;;;4805116;29;20051;-74
2022/03/01 05:38:52;;;;;;;114.30;22.35;;;3.10;92.10;;;;;;4805071;29;20409;-73
2022/03/01 05:41:20;;;;;;;113.47;22.52;;;3.00;92.30;;;;;;4804584;29;20485;-73
2022/03/01 05:43:48;;;;;;;103.75;22.35;;;3.00;92.20;;;;;;4805276;29;20422;-73
2022/03/01 05:46:15;;;;;;;104.97;22.00;;;2.90;92.20;;;;;;4804532;29;20047;-73
2022/03/01 05:48:43;;;;;;;108.50;21.13;;;2.80;92.00;;;;;;4805049;29;20054;-73
2022/03/01 05:51:11;;;;;;;92.75;19.15;;;2.80;92.00;;;;;;4805052;29;20047;-73
2022/03/01 05:53:38;;;;;;;82.50;19.33;;;2.70;92.00;;;;;;4804151;29;20505;-73
2022/03/01 05:56:06;;;;;;;89.22;18.83;;;2.70;92.10;;;;;;4805282;29;20548;-73
2022/03/01 05:58:33;;;;;;;89.57;19.13;;;2.70;92.20;;;;;;4805130;29;20077;-73
2022/03/01 06:01:01;;;;;;;77.43;18.00;;;2.70;92.20;;;;;;4804797;29;20065;-73
2022/03/01 06:03:29;;;;;;;80.30;17.70;;;2.70;92.30;;;;;;4804160;29;20516;-73
2022/03/01 06:05:57;;;;;;;77.53;17.45;;;2.60;92.40;;;;;;4804665;29;20517;-73
2022/03/01 06:08:25;;;;;;;82.85;17.65;;;2.60;92.40;;;;;;4805291;29;20046;-73
2022/03/01 06:10:52;;;;;;;82.63;15.98;;;2.60;92.30;;;;;;4804406;29;20062;-74
2022/03/01 06:13:20;;;;;;;74.53;16.20;;;2.50;92.30;;;;;;4804423;29;20053;-73
2022/03/01 06:15:48;;;;;;;83.30;15.82;;;2.50;92.40;;;;;;4804949;29;20046;-73
2022/03/01 06:18:16;;;;;;;72.80;15.25;;;2.50;92.30;;;;;;4804372;29;20800;-73
2022/03/01 06:20:44;;;;;;;78.45;17.08;;;2.30;92.30;;;;;;4804563;29;21881;-73
2022/03/01 06:23:12;;;;;;;92.10;18.52;;;2.30;92.20;;;;;;4804928;29;20413;-73
2022/03/01 06:25:42;;;;;;;82.05;16.17;;;2.30;92.10;;;;;;4804638;29;20058;-73
2022/03/01 06:28:10;;;;;;;76.10;16.85;;;2.20;91.90;;;;;;4804537;29;20055;-73
2022/03/01 06:30:38;;;;;;;80.97;18.38;;;2.10;91.80;;;;;;4803208;29;20051;-73
2022/03/01 06:33:06;;;;;;;83.03;16.80;;;2.00;92.00;;;;;;4802748;29;20043;-73
2022/03/01 06:35:33;;;;;;;71.60;16.40;;;2.00;91.90;;;;;;4804521;29;20054;-73
2022/03/01 06:38:01;;;;;;;58.90;14.70;;;1.90;91.80;;;;;;4804118;29;20443;-73
2022/03/01 06:40:29;;;;;;;66.63;15.30;;;1.90;92.00;;;;;;4800720;29;20046;-73
2022/03/01 06:42:56;;;;;;;55.03;15.60;;;1.90;92.20;;;;;;4803858;29;20493;-73
2022/03/01 06:45:24;;;;;;;66.55;13.82;;;1.90;92.30;;;;;;4804382;29;20061;-73
2022/03/01 06:47:52;;;;;;;60.40;14.30;;;2.00;92.50;;;;;;4803582;29;20410;-73
2022/03/01 06:50:20;;;;;;;46.08;12.23;;;2.00;92.60;;;;;;4799400;29;20054;-74
2022/03/01 06:52:48;;;;;;;59.90;13.18;;;2.00;92.60;;;;;;4803317;29;20059;-74
2022/03/01 06:55:15;;;;;;;43.17;11.68;;;2.00;92.60;;;;;;4802688;29;20047;-75
2022/03/01 06:57:43;;;;;;;44.15;11.68;;;2.00;92.70;;;;;;4802837;29;20414;-75
2022/03/01 07:00:12;;;;;;;33.03;10.98;;;2.00;92.70;;;;;;4802946;29;20047;-75
2022/03/01 07:02:41;;;;;;;38.92;10.63;;;2.00;92.80;;;;;;4799506;29;20043;-75
2022/03/01 07:05:12;;;;;;;36.95;10.63;;;2.00;92.70;;;;;;4793763;29;20065;-76
2022/03/01 07:07:40;;;;;;;39.75;11.80;;;2.00;92.70;;;;;;4805007;29;20063;-75
2022/03/01 07:10:11;;;;;;;34.70;10.50;;;2.00;92.60;;;;;;4805051;29;20409;-75
2022/03/01 07:12:40;;;;;;;36.83;11.50;;;1.90;92.50;;;;;;4804252;29;20054;-75
2022/03/01 07:15:09;;;;;;;38.30;10.85;;;1.90;92.50;;;;;;4789172;29;20409;-72
2022/03/01 07:17:41;;;;;;;;;;;1.90;92.50;;;;;;4803997;29;20394;-73
2022/03/01 07:20:09;;;;;;;45.22;12.23;;;1.90;92.60;;;;;;4803416;29;20044;-73
2022/03/01 07:22:37;;;;;;;43.05;12.07;;;1.90;92.70;;;;;;4803140;29;20498;-73
2022/03/01 07:25:06;;;;;;;43.63;11.98;;;2.00;92.90;;;;;;4800882;29;20055;-73
2022/03/01 07:27:34;;;;;;;35.83;10.77;;;2.00;93.00;;;;;;4791214;29;20052;-73
2022/03/01 07:30:02;;;;;;;34.05;11.60;;;2.10;93.10;;;;;;4799334;29;20505;-73
2022/03/01 07:32:30;;;;;;;33.15;11.20;;;2.20;93.20;;;;;;4804827;29;20062;-74
2022/03/01 07:34:57;;;;;;;39.30;12.13;;;2.20;93.30;;;;;;4788505;29;20059;-73
2022/03/01 07:37:25;;;;;;;32.45;11.45;;;2.20;93.30;;;;;;4804792;29;20050;-73
2022/03/01 07:39:55;;;;;;;39.13;10.82;;;2.30;93.30;;;;;;4805065;29;20058;-73
2022/03/01 07:42:23;;;;;;;33.20;10.65;;;2.30;93.30;;;;;;4804892;29;20406;-73
2022/03/01 07:44:50;;;;;;;39.55;10.63;;;2.40;93.30;;;;;;4804108;29;20059;-73
2022/03/01 07:47:18;;;;;;;31.67;9.43;;;2.50;93.40;;;;;;4818481;29;20063;-73
2022/03/01 07:49:49;;;;;;;26.77;9.02;;;2.50;93.40;;;;;;4798115;29;20066;-73
2022/03/01 07:52:17;;;;;;;28.13;8.60;;;2.60;93.40;;;;;;4803376;29;20058;-72
2022/03/01 07:54:44;;;;;;;27.65;8.55;;;2.70;93.40;;;;;;4803956;29;20066;-72
2022/03/01 07:57:12;;;;;;;30.52;9.13;;;2.80;93.40;;;;;;4803850;29;20046;-73
2022/03/01 07:59:40;;;;;;;31.17;9.50;;;2.80;93.40;;;;;;4819393;29;20061;-74
2022/03/01 08:02:08;;;;;;;32.90;9.68;;;2.90;93.40;;;;;;4807141;29;20062;-74
2022/03/01 08:04:37;;;;;;;25.20;8.85;;;2.80;93.30;;;;;;4806927;29;20405;-74
2022/03/01 08:07:04;;;;;;;34.33;9.10;;;2.90;93.30;;;;;;4814068;29;20051;-74
2022/03/01 08:09:32;;;;;;;30.45;9.95;;;3.00;93.30;;;;;;4807507;29;20394;-74
2022/03/01 08:12:02;;;;;;;29.25;10.50;;;3.00;93.30;;;;;;4805642;29;20047;-73
2022/03/01 08:14:31;;;;;;;26.90;9.60;;;3.10;93.30;;;;;;4806270;29;20054;-73
2022/03/01 08:17:00;;;;;;;31.67;9.73;;;3.10;93.30;;;;;;4808000;29;20061;-73
2022/03/01 08:19:28;;;;;;;26.10;9.63;;;3.20;93.30;;;;;;4807742;29;20047;-74
2022/03/01 08:21:55;;;;;;;26.58;9.50;;;3.30;93.30;;;;;;4807875;29;20069;-73
2022/03/01 08:24:23;;;;;;;24.88;9.07;;;3.30;93.30;;;;;;4807167;29;20065;-73
2022/03/01 08:26:51;;;;;;;27.42;9.65;;;3.30;93.30;;;;;;4807983;29;20058;-73
2022/03/01 08:29:18;;;;;;;27.77;8.57;;;3.30;93.30;;;;;;4807930;29;20057;-73
2022/03/01 08:31:46;;;;;;;21.80;7.97;;;3.40;93.30;;;;;;4806725;29;20058;-73
2022/03/01 08:34:14;;;;;;;25.77;8.95;;;3.40;93.20;;;;;;4807509;29;20058;-74
2022/03/01 08:36:43;;;;;;;21.52;8.02;;;3.50;93.20;;;;;;4806903;29;20066;-73
2022/03/01 08:39:10;;;;;;;22.67;7.43;;;3.50;93.20;;;;;;4807011;29;20505;-74
2022/03/01 08:41:38;;;;;;;21.77;6.47;;;3.60;93.20;;;;;;4807643;29;20042;-74
2022/03/01 08:44:06;;;;;;;16.35;6.85;;;3.60;93.10;;;;;;4806707;29;20449;-74
2022/03/01 08:46:34;;;;;;;24.58;5.85;;;3.70;93.10;;;;;;4807447;29;20502;-74
2022/03/01 08:49:01;;;;;;;19.20;5.80;;;3.80;93.20;;;;;;4807722;29;20050;-74
2022/03/01 08:51:30;;;;;;;19.23;5.40;;;3.80;93.10;;;;;;4807503;29;20070;-74
2022/03/01 08:53:59;;;;;;;14.23;5.40;;;3.80;93.10;;;;;;4807669;29;20050;-74
2022/03/01 08:56:27;;;;;;;20.10;4.75;;;3.90;93.00;;;;;;4806140;29;20386;-74
2022/03/01 08:58:55;;;;;;;18.77;4.50;;;4.00;93.00;;;;;;4807623;29;20055;-74
2022/03/01 09:01:23;;;;;;;14.20;4.00;;;4.00;92.90;;;;;;4806532;29;20412;-74
2022/03/01 09:03:50;;;;;;;15.13;4.00;;;4.20;92.90;;;;;;4806334;29;20050;-74
2022/03/01 09:06:18;;;;;;;13.38;3.17;;;4.20;92.90;;;;;;4806994;29;20050;-74
2022/03/01 09:08:46;;;;;;;18.60;3.58;;;4.30;92.90;;;;;;4807420;29;20050;-74
2022/03/01 09:11:13;;;;;;;11.88;2.67;;;4.30;92.70;;;;;;4806424;29;20051;-74
2022/03/01 09:13:41;;;;;;;10.02;2.60;;;4.50;92.70;;;;;;4820843;29;20528;-74
2022/03/01 09:16:09;;;;;;;15.77;2.88;;;4.50;92.50;;;;;;4807239;29;20058;-74
2022/03/01 09:18:37;;;;;;;15.02;2.75;;;4.60;92.40;;;;;;4806952;29;20059;-74
2022/03/01 09:21:05;;;;;;;12.88;2.00;;;4.70;92.20;;;;;;4806494;29;20434;-74
2022/03/01 09:23:40;;;;;;;13.98;2.72;;;4.80;92.00;;;;;;4807032;29;20055;-74
2022/03/01 09:26:08;;;;;;;10.13;2.22;;;4.80;91.60;;;;;;4806832;29;20055;-74
2022/03/01 09:28:36;;;;;;;9.13;2.00;;;4.80;91.40;;;;;;4804394;29;20421;-74
2022/03/01 09:31:04;;;;;;;11.05;2.38;;;4.80;91.10;;;;;;4806057;29;20058;-74
2022/03/01 09:33:32;;;;;;;12.77;2.20;;;4.80;90.70;;;;;;4806685;29;20395;-74
2022/03/01 09:36:01;;;;;;;9.98;1.92;;;4.90;90.10;;;;;;4806529;29;20070;-74
2022/03/01 09:38:28;;;;;;;7.07;1.52;;;5.00;89.30;;;;;;4805736;29;20069;-74
2022/03/01 09:40:56;;;;;;;8.18;1.30;;;5.10;88.60;;;;;;4806797;29;20054;-74
2022/03/01 09:43:24;;;;;;;7.30;1.13;;;5.10;88.00;;;;;;4804670;29;20069;-74
2022/03/01 09:45:52;;;;;;;7.13;1.30;;;5.30;87.40;;;;;;4806101;29;20062;-74
2022/03/01 09:48:20;;;;;;;9.75;1.60;;;5.30;86.90;;;;;;4806067;29;20053;-74
2022/03/01 09:50:48;;;;;;;16.95;2.00;;;5.40;86.10;;;;;;4806540;29;20053;-74
2022/03/01 09:53:16;;;;;;;9.52;1.38;;;5.50;85.90;;;;;;4806381;29;20051;-74
2022/03/01 09:55:44;;;;;;;11.90;1.90;;;5.60;85.70;;;;;;4805852;29;20055;-74
2022/03/01 09:58:13;;;;;;;10.25;1.77;;;5.70;85.20;;;;;;4805939;29;20387;-74
2022/03/01 10:00:40;;;;;;;9.63;1.70;;;5.80;84.90;;;;;;4801923;29;20213;-74
2022/03/01 10:03:08;;;;;;;10.40;1.65;;;5.90;84.60;;;;;;4806065;29;20069;-73
2022/03/01 10:05:40;;;;;;;9.35;1.35;;;6.00;83.90;;;;;;4805192;29;20223;-74
2022/03/01 10:08:09;;;;;;;8.25;1.50;;;6.20;83.10;;;;;;4806273;29;20058;-73
2022/03/01 10:10:42;;;;;;;14.02;1.85;;;6.30;82.50;;;;;;4805258;29;20069;-73
2022/03/01 10:13:13;;;;;;;8.73;1.02;;;6.50;81.10;;;;;;4806148;29;20075;-73
2022/03/01 10:15:41;;;;;;;12.68;1.70;;;6.70;80.40;;;;;;4805838;29;20071;-74
2022/03/01 10:18:11;;;;;;;5.20;1.10;;;6.80;80.10;;;;;;4805816;29;20051;-73
2022/03/01 10:20:44;;;;;;;6.40;1.38;;;6.90;79.90;;;;;;4805941;29;20426;-73
2022/03/01 10:23:19;;;;;;;11.68;1.55;;;7.10;79.60;;;;;;4804375;29;20055;-74
2022/03/01 10:25:47;;;;;;;14.15;2.33;;;7.20;79.10;;;;;;4805802;29;20494;-74
2022/03/01 10:28:15;;;;;;;13.52;1.75;;;7.40;79.20;;;;;;4805524;29;20062;-74
2022/03/01 10:30:44;;;;;;;6.65;1.33;;;7.60;78.70;;;;;;4804376;29;20054;-74
2022/03/01 10:33:14;;;;;;;8.77;1.55;;;7.80;77.90;;;;;;4805079;29;20062;-73
2022/03/01 10:35:56;;;;;;;12.55;1.70;;;8.00;77.70;;;;;;4805319;29;20051;-73
2022/03/01 10:38:24;;;;;;;11.38;1.60;;;8.20;76.30;;;;;;4805637;29;20062;-73
2022/03/01 10:40:57;;;;;;;11.07;1.70;;;8.30;75.60;;;;;;4805669;29;20055;-74
2022/03/01 10:43:26;;;;;;;11.73;2.00;;;8.40;75.70;;;;;;4805441;29;20402;-74
2022/03/01 10:45:56;;;;;;;9.23;1.77;;;8.50;75.70;;;;;;4805370;29;20066;-74
2022/03/01 10:48:28;;;;;;;16.65;1.63;;;8.70;75.70;;;;;;4805664;29;20058;-74
2022/03/01 10:51:10;;;;;;;8.73;1.65;;;8.80;74.10;;;;;;4804803;29;20063;-74
2022/03/01 10:53:45;;;;;;;11.00;1.48;;;9.00;73.30;;;;;;4787265;29;20077;-74
2022/03/01 10:56:14;;;;;;;10.88;1.55;;;9.00;72.80;;;;;;4787215;30;20050;-74
2022/03/01 10:58:43;;;;;;;15.77;1.60;;;9.20;72.20;;;;;;4786116;30;20055;-74
2022/03/01 11:01:12;;;;;;;8.85;1.73;;;9.30;71.50;;;;;;4787320;30;20044;-74
2022/03/01 11:03:40;;;;;;;8.98;1.40;;;9.40;71.80;;;;;;4787132;30;20055;-74
2022/03/01 11:06:10;;;;;;;12.13;1.50;;;9.50;70.40;;;;;;4787562;29;20055;-74
2022/03/01 11:08:40;;;;;;;14.18;1.77;;;9.70;70.30;;;;;;4785590;30;20062;-73
2022/03/01 11:11:11;;;;;;;9.75;1.45;;;9.80;69.90;;;;;;4787488;29;20058;-74
2022/03/01 11:13:44;;;;;;;9.50;1.25;;;10.00;69.40;;;;;;4787385;30;20059;-74
2022/03/01 11:16:35;;;;;;;10.45;1.63;;;10.20;68.70;;;;;;4786144;30;20399;-74
2022/03/01 11:19:44;;;;;;;9.88;1.67;;;10.30;68.20;;;;;;4786765;30;20047;-73
2022/03/01 11:22:48;;;;;;;9.57;1.45;;;10.50;67.80;;;;;;4759769;30;20062;-73
2022/03/01 11:25:17;;;;;;;9.23;1.50;;;10.60;67.30;;;;;;4770923;30;20048;-74
2022/03/01 11:27:52;;;;;;;9.85;1.33;;;10.80;66.50;;;;;;4785900;30;20063;-74
2022/03/01 11:30:31;;;;;;;9.07;1.42;;;10.80;66.70;;;;;;4787112;30;20043;-73
2022/03/01 11:32:59;;;;;;;10.80;1.40;;;10.90;66.20;;;;;;4786593;29;20066;-74
2022/03/01 11:35:30;;;;;;;13.50;1.90;;;11.10;65.30;;;;;;4792798;30;20051;-73
2022/03/01 11:38:13;;;;;;;11.70;1.60;;;11.00;64.80;;;;;;4803468;29;20062;-74
2022/03/01 11:40:51;;;;;;;8.65;1.83;;;11.10;64.50;;;;;;4775125;30;20055;-73
2022/03/01 11:43:28;;;;;;;10.45;1.70;;;11.10;64.30;;;;;;4784282;30;20502;-73
2022/03/01 11:45:58;;;;;;;9.80;1.65;;;11.10;64.20;;;;;;4806888;29;20062;-72
2022/03/01 11:48:28;;;;;;;6.10;1.50;;;11.20;63.80;;;;;;4793948;29;20056;-73
2022/03/01 11:50:59;;;;;;;9.50;1.67;;;11.30;63.10;;;;;;4776696;29;20063;-73
2022/03/01 11:53:33;;;;;;;12.88;2.55;;;11.30;62.70;;;;;;4808127;29;20054;-73
2022/03/01 11:56:03;;;;;;;11.82;3.28;;;11.30;62.40;;;;;;4810590;29;20079;-72
2022/03/01 11:58:34;;;;;;;15.00;3.65;;;11.30;62.00;;;;;;4818814;29;20058;-73
2022/03/01 12:01:09;;;;;;;17.15;5.47;;;11.30;62.00;;;;;;4810851;29;20057;-73
2022/03/01 12:03:39;;;;;;;4.85;2.05;;;11.40;60.60;;;;;;4809002;29;20382;-73
2022/03/01 12:06:08;;;;;;;10.77;1.83;;;11.50;60.60;;;;;;4810770;29;20050;-75
2022/03/01 12:08:39;;;;;;;12.20;1.77;;;11.50;60.10;;;;;;4824777;29;20057;-71
2022/03/01 12:11:09;;;;;;;5.57;1.70;;;11.60;59.80;;;;;;4809678;29;20126;-73
2022/03/01 12:13:49;;;;;;;10.20;1.80;;;11.80;59.00;;;;;;4810127;29;20070;-73
2022/03/01 12:16:28;;;;;;;6.28;1.40;;;11.90;58.10;;;;;;4809440;29;20077;-70
2022/03/01 12:19:14;;;;;;;7.63;1.40;;;12.20;57.20;;;;;;4809999;29;20062;-73
2022/03/01 12:21:58;;;;;;;7.63;1.83;;;12.50;55.40;;;;;;4810401;29;20154;-72
2022/03/01 12:24:28;;;;;;;10.38;1.33;;;12.70;55.60;;;;;;4809786;29;20051;-73
2022/03/01 12:26:58;;;;;;;9.40;1.40;;;13.00;55.30;;;;;;4809969;29;20066;-72
2022/03/01 12:29:28;;;;;;;10.20;1.50;;;13.20;55.10;;;;;;4810684;29;20057;-74
2022/03/01 12:32:12;;;;;;;6.13;1.27;;;13.30;52.90;;;;;;4809611;29;20518;-72
2022/03/01 12:34:42;;;;;;;9.23;1.50;;;13.30;52.40;;;;;;4808826;29;20401;-73
2022/03/01 12:37:14;;;;;;;9.88;1.77;;;13.50;51.90;;;;;;4805029;29;20062;-73
2022/03/01 12:39:42;;;;;;;9.65;1.95;;;13.70;53.00;;;;;;4806126;29;20058;-73
2022/03/01 12:42:10;;;;;;;5.75;1.65;;;14.10;53.00;;;;;;4808796;29;20074;-73
2022/03/01 12:44:38;;;;;;;5.82;1.50;;;14.50;52.60;;;;;;4804083;29;20054;-73
2022/03/01 12:47:09;;;;;;;7.80;1.67;;;14.90;50.50;;;;;;4806167;29;20417;-73
2022/03/01 12:49:37;;;;;;;7.05;1.55;;;15.00;48.70;;;;;;4805485;29;20524;-73
2022/03/01 12:52:05;;;;;;;8.40;2.08;;;15.20;48.80;;;;;;4806754;29;20054;-72